Crane Lake, MN

9:58 PM CST on December 07, 2016 (GMT -0600)
Crane Lake | | Change Station

Elev 1119 ft 48.27 °N, 92.48 °W | Updated 11 minutes ago

Snow
Snow
21 °F
Feels Like 12 °F
N
8
Wind Variable Wind from NNW

Today
High -- | Low -- °F
--% Chance of Precip.
Yesterday
High -- | Low -- °F
Precip. -- in
Pressure 29.93 in
Visibility 5.0 miles
Clouds Scattered Clouds 2200 ft
Mostly Cloudy 3800 ft
Overcast 5000 ft
Windchill 12 °F
Dew Point 19 °F
Humidity 93%
Rainfall 0.00 in
Snow Depth Not available.
7:47 AM 4:15 PM
First Quarter, 59% visible
METAR KCDD 080347Z AUTO 34007KT 303V003 5SM -SN SCT022 BKN038 OVC050 M06/M07 A2993 RMK AO2
Pressure 29.93 in
Visibility 5.0 miles
Clouds Scattered Clouds 2200 ft
Mostly Cloudy 3800 ft
Overcast 5000 ft
Windchill 12 °F
Dew Point 19 °F
Humidity 93%
Rainfall 0.00 in
Snow Depth Not available.
7:47 AM 4:15 PM
First Quarter, 59% visible
METAR KCDD 080347Z AUTO 34007KT 303V003 5SM -SN SCT022 BKN038 OVC050 M06/M07 A2993 RMK AO2

10-Day Weather Forecast

Almanac

Astronomy

Dec. 07, 2016 Rise Set
Actual Time
Civil Twilight
Nautical Twilight
Astronomical Twilight
Moon
Length of Visible Light
Length of Day
Tomorrow will be .
, % of the Moon is Illuminated

Today's Extremes

State Highs State Lows

Community

WunderPhotos

Upload Photos

1,956,259 photos uploaded!

WunderBlog® & News

Nearby

Air Quality

  Air Quality AQ Index Pollutant
Not available.

Snow Depth

Station Depth Elevation

Earthquake Activity

City Distance Mag. Time & Date
Minimum magnitude displayed is 2.5.

Coastal Water Temperatures

Place Temperature

Stations

Nearby Weather Stations

Station Location Temp. Windchill Dew Point Humidity Wind Precip. Elev Updated Type
                   

Watches & Warnings

There are currently no watches in effect.